フォルタレザ の空港の天気 - METARとTAF

フォルタレザ/ピント・マーティンズ国際空港 ( SBFZ / FOR ) - ブラジル セアラー州フォルタレザ
飛行場実況気象(Metar)
観測時間01/16 15:00 BRT (01/16 18:00 UTC)
風向・風速南東 2m/s
視程10km以上
天気現象
全天の4割程度の雲 雲底高度 400m
全天の8割程度の雲 雲底高度 2740m
気温27℃
湿度84%
気圧1011hPa
METARSBFZ 161800Z 13003KT 9999 SCT013 BKN090 27/24 Q1011
過去の天気等 Google飛行場航空写真 Wunderground天気予報

過去48時間のMETAR

飛行場予報(TAF)
発表時間: 1/16 13:11 BRT (1/16 16:11 UTC)
予報対象時間: 16日15時 BRT ~ 17日15時 BRT
風向・風速東 5m/s
視程7000m
全天の8割程度の雲 雲底高度 700m
少しの塔状積雲 雲底高度 820m
16日15時 BRT ~ 16日17時 BRT に徐々に
風向・風速南 3m/s
16日17時 BRT ~ 16日20時 BRT に徐々に
視程8000m
少しの雲 雲底高度 610m
17日4時 BRT ~ 17日6時 BRT に徐々に
視程7000m
全天の8割程度の雲 雲底高度 520m
少しの塔状積雲 雲底高度 700m
17日6時 BRT から 確率 40% で
視程4000m
天気現象
17日9時 BRT ~ 17日12時 BRT に徐々に
風向・風速東 5m/s
TAF SBFZ 161611Z 1618/1718 10010KT 7000 BKN023 FEW027TCU TN24/1709Z TX29/1718Z
BECMG 1618/1620 17005KT
BECMG 1620/1623 8000 FEW020
BECMG 1707/1709 7000 BKN017 FEW023TCU
PROB40 1709/1712 4000 RA
BECMG 1712/1715 10010KT RMK PHC